This is the latest recevied weather packets stored in our database for station/object SP2NBH-2. If no packets are shown the sender has not sent any weather packets the latest 10 day(s).
| Time | Temp. | Humidity | Pressure | Rain* | Wind** | Luminosity | Snow |
|---|---|---|---|---|---|---|---|
| 1777828357 | 17.78° C | 39% | 1011.2 hPa | - | - | - | - |
| 1777827456 | 18.33° C | 39% | 1011.1 hPa | - | - | - | - |
| 1777826556 | 18.33° C | 38% | 1011.1 hPa | - | - | - | - |
| 1777825656 | 17.78° C | 40% | 1011 hPa | - | - | - | - |
| 1777817562 | 32.78° C | 15% | 1011.1 hPa | - | - | - | - |
| 1777811255 | 30° C | 15% | 1012.3 hPa | - | - | - | - |
| 1777809504 | 30° C | 15% | 1012.7 hPa | - | - | - | - |
| 1777809455 | 30° C | 15% | 1012.7 hPa | - | - | - | - |
| 1777808555 | 30.56° C | 16% | 1012.9 hPa | - | - | - | - |
| 1777807655 | 30.56° C | 14% | 1013 hPa | - | - | - | - |
| 1777804054 | 27.78° C | 17% | 1013.5 hPa | - | - | - | - |
| 1777803155 | 28.33° C | 17% | 1013.6 hPa | - | - | - | - |
| 1777802254 | 27.22° C | 19% | 1013.9 hPa | - | - | - | - |
| 1777800454 | 26.67° C | 21% | 1014.1 hPa | - | - | - | - |
| 1777798782 | 25.56° C | 24% | 1014.5 hPa | - | - | - | - |
| 1777798748 | 25.56° C | 24% | 1014.5 hPa | - | - | - | - |
| 1777797848 | 25° C | 28% | 1014.6 hPa | - | - | - | - |
| 1777796948 | 24.44° C | 28% | 1014.7 hPa | - | - | - | - |
| 1777796048 | 23.89° C | 30% | 1014.7 hPa | - | - | - | - |
| 1777795147 | 22.78° C | 32% | 1014.8 hPa | - | - | - | - |
| 1777793347 | 21.67° C | 33% | 1015 hPa | - | - | - | - |
| 1777792446 | 20.56° C | 35% | 1015 hPa | - | - | - | - |
| 1777790648 | 20° C | 37% | 1015.1 hPa | - | - | - | - |
| 1777789780 | 19.44° C | 38% | 1015.2 hPa | - | - | - | - |
| 1777789748 | 19.44° C | 38% | 1015.2 hPa | - | - | - | - |
* Rain since midnight (hover to see other rain measurements)
** Current wind speed in m/s (hover to see current wind gust speed)